This is the latest recevied weather packets stored in our database for station/object KO6TH-15. If no packets are shown the sender has not sent any weather packets the latest 10 day(s).
| Time | Temp. | Humidity | Pressure | Rain* | Wind** | Luminosity | Snow |
|---|---|---|---|---|---|---|---|
| 1778095460 | 17.22° C | 83% | 0 hPa | 0 mm | - | - | - |
| 1778094860 | 16.67° C | 84% | 0 hPa | 0 mm | - | - | - |
| 1778094230 | 17.22° C | 84% | 0 hPa | 0 mm | - | - | - |
| 1778093600 | 16.67° C | 86% | 0 hPa | 0 mm | - | - | - |
| 1778092970 | 16.67° C | 85% | 0 hPa | 0 mm | - | - | - |
| 1778092340 | 16.67° C | 85% | 0 hPa | 0 mm | - | - | - |
| 1778091710 | 16.67° C | 85% | 0 hPa | 0 mm | - | - | - |
| 1778091110 | 17.78° C | 81% | 0 hPa | 0 mm | - | - | - |
| 1778090510 | 17.78° C | 80% | 0 hPa | 0 mm | - | - | - |
| 1778089880 | 18.33° C | 77% | 0 hPa | 0 mm | - | - | - |
| 1778089250 | 18.33° C | 79% | 0 hPa | 0 mm | - | - | - |
| 1778088650 | 17.22° C | 82% | 0 hPa | 0 mm | - | - | - |
| 1778088020 | 17.22° C | 82% | 0 hPa | 0 mm | - | - | - |
| 1778087390 | 17.22° C | 82% | 0 hPa | 0 mm | - | - | - |
| 1778086760 | 16.67° C | 83% | 0 hPa | 0 mm | - | - | - |
| 1778086130 | 16.67° C | 84% | 0 hPa | 0 mm | - | - | - |
| 1778085500 | 16.11° C | 85% | 0 hPa | 0 mm | - | - | - |
| 1778084870 | 15.56° C | 88% | 0 hPa | 0 mm | - | - | - |
| 1778084240 | 15.56° C | 88% | 0 hPa | 0 mm | - | - | - |
| 1778083610 | 15.56° C | 88% | 0 hPa | 0 mm | - | - | - |
| 1778083010 | 15° C | 90% | 0 hPa | 0 mm | - | - | - |
| 1778082380 | 15° C | 91% | 0 hPa | 0 mm | - | - | - |
| 1778081750 | 14.44° C | 93% | 0 hPa | 0 mm | - | - | - |
| 1778081150 | 13.89° C | 96% | 0 hPa | 0 mm | - | - | - |
| 1778080550 | 13.89° C | 98% | 0 hPa | 0 mm | - | - | - |
* Rain latest hour (hover to see other rain measurements)
** Current wind speed in m/s (hover to see current wind gust speed)